createdAt,value
2023-03-15T00:01:47.858Z,5.30
2023-03-15T00:04:14.818Z,5.30
2023-03-15T00:06:41.540Z,5.30
2023-03-15T00:09:08.264Z,5.30
2023-03-15T00:11:34.936Z,5.20
2023-03-15T00:14:02.418Z,5.20
2023-03-15T00:16:29.166Z,5.20
2023-03-15T00:18:56.775Z,5.10
2023-03-15T00:21:23.810Z,5.10
2023-03-15T00:23:50.859Z,5.10
2023-03-15T00:26:17.931Z,5.20
2023-03-15T00:28:44.647Z,5.10
2023-03-15T00:31:19.385Z,5.10
2023-03-15T00:33:46.253Z,5.20
2023-03-15T00:36:13.719Z,5.20
2023-03-15T00:38:42.863Z,5.30
2023-03-15T00:41:15.644Z,5.30
2023-03-15T00:43:43.338Z,5.30
2023-03-15T00:46:11.437Z,5.40
2023-03-15T00:48:38.516Z,5.40
2023-03-15T00:51:14.837Z,5.40
2023-03-15T00:53:43.889Z,5.30
2023-03-15T00:56:16.682Z,5.30
2023-03-15T00:58:43.958Z,5.30
2023-03-15T01:01:17.599Z,5.30
2023-03-15T01:03:44.678Z,5.30
2023-03-15T01:06:17.702Z,5.40
2023-03-15T01:08:44.599Z,5.40
2023-03-15T01:11:17.536Z,5.40
2023-03-15T01:13:44.288Z,5.40
2023-03-15T01:16:12.726Z,5.50
2023-03-15T01:18:41.232Z,5.50
2023-03-15T01:21:09.533Z,5.50
2023-03-15T01:23:36.397Z,5.40
2023-03-15T01:26:05.039Z,5.40
2023-03-15T01:28:32.072Z,5.40
2023-03-15T01:31:00.077Z,5.40
2023-03-15T01:33:27.424Z,5.40
2023-03-15T01:36:03.052Z,5.30
2023-03-15T01:38:30.429Z,5.40
2023-03-15T01:40:57.710Z,5.30
2023-03-15T01:43:26.481Z,5.40
2023-03-15T01:46:02.508Z,5.40
2023-03-15T01:48:32.185Z,5.40
2023-03-15T01:51:00.892Z,5.50
2023-03-15T01:53:30.480Z,5.50
2023-03-15T01:55:58.170Z,5.50
2023-03-15T01:58:27.215Z,5.50
2023-03-15T02:00:54.622Z,5.50
2023-03-15T02:03:26.824Z,5.50
2023-03-15T02:05:58.919Z,5.40
2023-03-15T02:08:32.993Z,5.40
2023-03-15T02:11:03.938Z,5.40
2023-03-15T02:13:32.416Z,5.40
2023-03-15T02:15:59.714Z,5.40
2023-03-15T02:18:26.534Z,5.30
2023-03-15T02:21:00.283Z,5.30
2023-03-15T02:23:28.571Z,5.30
2023-03-15T02:25:55.176Z,5.30
2023-03-15T02:28:22.482Z,5.30
2023-03-15T02:30:49.529Z,5.30
2023-03-15T02:33:26.946Z,5.30
2023-03-15T02:35:54.638Z,5.30
2023-03-15T02:38:22.652Z,5.20
2023-03-15T02:40:52.887Z,5.20
2023-03-15T02:43:24.954Z,5.20
2023-03-15T02:45:52.111Z,5.10
2023-03-15T02:48:19.838Z,5.10
2023-03-15T02:50:46.519Z,5.00
2023-03-15T02:53:13.192Z,5.00
2023-03-15T02:55:39.795Z,4.90
2023-03-15T02:58:06.803Z,4.90
2023-03-15T03:00:33.501Z,4.80
2023-03-15T03:03:00.308Z,4.80
2023-03-15T03:05:27.706Z,4.70
2023-03-15T03:07:55.146Z,4.70
2023-03-15T03:10:22.267Z,4.70
2023-03-15T03:12:53.416Z,4.70
2023-03-15T03:15:20.818Z,4.60
2023-03-15T03:17:47.664Z,4.60
2023-03-15T03:20:15.352Z,4.60
2023-03-15T03:22:44.788Z,4.50
2023-03-15T03:25:12.500Z,4.50
2023-03-15T03:27:40.874Z,4.50
2023-03-15T03:30:12.107Z,4.50
2023-03-15T03:32:41.129Z,4.50
2023-03-15T03:35:08.553Z,4.40
2023-03-15T03:37:35.839Z,4.40
2023-03-15T03:40:07.712Z,4.40
2023-03-15T03:42:35.403Z,4.30
2023-03-15T03:45:02.393Z,4.30
2023-03-15T03:47:29.186Z,4.30
2023-03-15T03:49:55.918Z,4.20
2023-03-15T03:52:22.560Z,4.20
2023-03-15T03:54:49.189Z,4.20
2023-03-15T03:57:15.861Z,4.30
2023-03-15T03:59:42.540Z,4.20
2023-03-15T04:02:09.391Z,4.20
2023-03-15T04:04:36.259Z,4.10
2023-03-15T04:07:02.968Z,4.10
2023-03-15T04:09:29.630Z,4.10
2023-03-15T04:11:56.323Z,4.00
2023-03-15T04:14:23.022Z,4.00
2023-03-15T04:16:49.726Z,3.90
2023-03-15T04:19:16.421Z,3.90
2023-03-15T04:21:47.073Z,3.90
2023-03-15T04:24:14.569Z,3.80
2023-03-15T04:26:41.997Z,3.80
2023-03-15T04:29:11.055Z,3.80
2023-03-15T04:31:38.163Z,3.80
2023-03-15T04:34:05.734Z,3.70
2023-03-15T04:36:32.412Z,3.70
2023-03-15T04:39:03.493Z,3.80
2023-03-15T04:41:30.205Z,3.70
2023-03-15T04:43:56.860Z,3.70
2023-03-15T04:46:25.051Z,3.70
2023-03-15T04:48:51.790Z,3.70
2023-03-15T04:51:18.431Z,3.70
2023-03-15T04:53:45.069Z,3.70
2023-03-15T04:56:11.716Z,3.70
2023-03-15T04:58:38.384Z,3.70
2023-03-15T05:01:05.261Z,3.60
2023-03-15T05:03:31.906Z,3.50
2023-03-15T05:05:58.541Z,3.50
2023-03-15T05:08:25.175Z,3.30
2023-03-15T05:10:51.839Z,3.30
2023-03-15T05:13:18.980Z,3.30
2023-03-15T05:15:45.928Z,3.30
2023-03-15T05:18:12.600Z,3.30
2023-03-15T05:20:39.245Z,3.30
2023-03-15T05:23:05.919Z,3.30
2023-03-15T05:25:32.651Z,3.30
2023-03-15T05:27:59.285Z,3.30
2023-03-15T05:30:25.935Z,3.30
2023-03-15T05:32:52.598Z,3.40
2023-03-15T05:35:19.426Z,3.40
2023-03-15T05:37:46.119Z,3.50
2023-03-15T05:40:13.141Z,3.50
2023-03-15T05:42:39.780Z,3.50
2023-03-15T05:45:07.460Z,3.50
2023-03-15T05:47:34.241Z,3.60
2023-03-15T05:50:00.899Z,3.50
2023-03-15T05:52:27.748Z,3.60
2023-03-15T05:54:54.569Z,3.60
2023-03-15T05:57:21.320Z,3.60
2023-03-15T05:59:48.005Z,3.60
2023-03-15T06:02:14.732Z,3.60
2023-03-15T06:04:41.609Z,3.60
2023-03-15T06:07:08.586Z,3.60
2023-03-15T06:09:35.383Z,3.60
2023-03-15T06:12:02.059Z,3.60
2023-03-15T06:14:28.906Z,3.70
2023-03-15T06:16:55.693Z,3.70
2023-03-15T06:19:23.641Z,3.70
2023-03-15T06:21:51.288Z,3.70
2023-03-15T06:24:18.113Z,3.80
2023-03-15T06:26:45.060Z,3.90
2023-03-15T06:29:11.772Z,3.90
2023-03-15T06:31:38.451Z,3.90
2023-03-15T06:34:05.119Z,3.90
2023-03-15T06:36:31.968Z,4.00
2023-03-15T06:38:58.727Z,4.00
2023-03-15T06:41:26.744Z,4.00
2023-03-15T06:43:53.389Z,4.10
2023-03-15T06:46:20.092Z,4.10
2023-03-15T06:48:46.762Z,4.10
2023-03-15T06:51:13.440Z,4.10
2023-03-15T06:53:40.083Z,4.10
2023-03-15T06:56:07.071Z,4.20
2023-03-15T06:58:33.843Z,4.20
2023-03-15T07:01:00.646Z,4.30
2023-03-15T07:03:27.378Z,4.30
2023-03-15T07:05:54.740Z,4.30
2023-03-15T07:08:22.910Z,4.40
2023-03-15T07:10:50.351Z,4.50
2023-03-15T07:13:18.181Z,4.60
2023-03-15T07:15:45.070Z,4.60
2023-03-15T07:18:11.848Z,4.60
2023-03-15T07:20:38.565Z,4.60
2023-03-15T07:23:05.531Z,4.70
2023-03-15T07:25:33.378Z,4.60
2023-03-15T07:28:03.059Z,4.60
2023-03-15T07:30:29.882Z,4.70
2023-03-15T07:32:56.828Z,4.70
2023-03-15T07:35:23.663Z,4.80
2023-03-15T07:37:51.191Z,4.80
2023-03-15T07:40:18.131Z,4.90
2023-03-15T07:42:44.892Z,5.10
2023-03-15T07:45:11.940Z,5.20
2023-03-15T07:47:38.579Z,5.40
2023-03-15T07:50:06.296Z,5.50
2023-03-15T07:52:33.222Z,5.50
2023-03-15T07:54:59.926Z,5.50
2023-03-15T07:57:28.817Z,5.50
2023-03-15T07:59:56.048Z,5.60
2023-03-15T08:02:22.960Z,5.50
2023-03-15T08:04:51.305Z,5.50
2023-03-15T08:07:17.992Z,5.50
2023-03-15T08:09:44.904Z,5.40
2023-03-15T08:12:12.012Z,5.50
2023-03-15T08:14:38.696Z,5.60
2023-03-15T08:17:05.454Z,5.60
2023-03-15T08:19:32.317Z,5.90
2023-03-15T08:21:59.011Z,6.20
2023-03-15T08:24:27.017Z,6.40
2023-03-15T08:26:53.750Z,6.50
2023-03-15T08:29:20.527Z,6.60
2023-03-15T08:31:47.283Z,6.80
2023-03-15T08:34:13.936Z,7.00
2023-03-15T08:36:41.792Z,7.00
2023-03-15T08:39:08.513Z,6.80
2023-03-15T08:41:35.267Z,6.50
2023-03-15T08:44:02.867Z,6.50
2023-03-15T08:46:29.704Z,6.50
2023-03-15T08:48:57.007Z,6.60
2023-03-15T08:51:25.437Z,6.50
2023-03-15T08:53:53.232Z,6.60
2023-03-15T08:56:20.316Z,6.70
2023-03-15T08:58:47.059Z,6.80
2023-03-15T09:01:15.016Z,6.50
2023-03-15T09:03:44.698Z,6.50
2023-03-15T09:06:11.372Z,6.40
2023-03-15T09:08:38.127Z,6.40
2023-03-15T09:11:05.310Z,6.20
2023-03-15T09:13:31.956Z,6.10
2023-03-15T09:15:58.648Z,6.00
2023-03-15T09:18:25.599Z,5.80
2023-03-15T09:20:52.593Z,5.80
2023-03-15T09:23:19.359Z,5.70
2023-03-15T09:25:46.070Z,5.60
2023-03-15T09:28:12.828Z,5.60
2023-03-15T09:30:41.234Z,5.50
2023-03-15T09:33:08.579Z,5.60
2023-03-15T09:35:35.592Z,5.60
2023-03-15T09:38:03.842Z,5.60
2023-03-15T09:40:33.742Z,5.70
2023-03-15T09:43:00.404Z,5.70
2023-03-15T09:45:52.806Z,5.40
2023-03-15T09:48:37.874Z,5.40
2023-03-15T09:51:21.104Z,5.30
2023-03-15T09:53:57.328Z,5.20
2023-03-15T09:56:26.705Z,5.20
2023-03-15T09:58:58.568Z,5.30
2023-03-15T10:01:47.520Z,5.30
2023-03-15T10:04:42.165Z,5.30
2023-03-15T10:07:14.622Z,5.40
2023-03-15T10:09:41.446Z,5.40
2023-03-15T10:12:28.783Z,5.40
2023-03-15T10:15:45.708Z,5.20
2023-03-15T10:18:32.374Z,5.30
2023-03-15T10:21:13.069Z,5.30
2023-03-15T10:23:48.466Z,5.20
2023-03-15T10:26:19.856Z,5.30
2023-03-15T10:28:47.457Z,5.40
2023-03-15T10:31:25.800Z,5.50
2023-03-15T10:33:59.400Z,5.60
2023-03-15T10:36:26.602Z,5.70
2023-03-15T10:38:53.488Z,5.70
2023-03-15T10:41:38.787Z,5.70
2023-03-15T10:44:27.754Z,5.70
2023-03-15T10:47:23.194Z,5.70
2023-03-15T10:49:59.058Z,5.60
2023-03-15T10:52:37.051Z,5.60
2023-03-15T10:55:29.354Z,5.60
2023-03-15T10:57:59.553Z,5.60
2023-03-15T11:00:32.834Z,5.80
2023-03-15T11:03:22.247Z,5.80
2023-03-15T11:05:54.735Z,6.00
2023-03-15T11:08:24.629Z,6.10
2023-03-15T11:11:00.789Z,6.20
2023-03-15T11:13:28.596Z,6.30
2023-03-15T11:16:04.474Z,6.40
2023-03-15T11:18:33.458Z,6.60
2023-03-15T11:21:04.957Z,6.70
2023-03-15T11:23:36.789Z,7.00
2023-03-15T11:26:04.293Z,7.10
2023-03-15T11:28:35.143Z,7.20
2023-03-15T11:31:04.594Z,7.30
2023-03-15T11:33:51.340Z,7.70
2023-03-15T11:36:22.025Z,8.20
2023-03-15T11:38:50.100Z,8.20
2023-03-15T11:41:40.944Z,8.10
2023-03-15T11:44:22.596Z,8.10
2023-03-15T11:46:54.396Z,8.20
2023-03-15T11:49:31.302Z,8.10
2023-03-15T11:51:58.429Z,8.10
2023-03-15T11:54:29.647Z,8.10
2023-03-15T11:57:00.796Z,8.00
2023-03-15T11:59:40.444Z,8.00
2023-03-15T12:02:10.002Z,7.80
2023-03-15T12:04:38.909Z,7.70
2023-03-15T12:07:24.381Z,7.50
2023-03-15T12:09:56.290Z,7.50
2023-03-15T12:12:25.837Z,7.60
2023-03-15T12:15:13.745Z,7.60
2023-03-15T12:17:46.584Z,7.60
2023-03-15T12:20:13.549Z,7.50
2023-03-15T12:23:19.592Z,7.50
2023-03-15T12:25:55.694Z,7.40
2023-03-15T12:28:33.497Z,7.30
2023-03-15T12:31:02.281Z,7.40
2023-03-15T12:33:32.175Z,7.50
2023-03-15T12:36:08.979Z,7.40
2023-03-15T12:38:41.712Z,7.30
2023-03-15T12:41:30.981Z,7.20
2023-03-15T12:44:28.808Z,7.10
2023-03-15T12:46:56.880Z,6.80
2023-03-15T12:49:23.464Z,6.90
2023-03-15T12:52:06.218Z,6.90
2023-03-15T12:54:56.968Z,7.00
2023-03-15T12:57:45.936Z,7.10
2023-03-15T13:00:16.622Z,7.20
2023-03-15T13:02:46.196Z,7.10
2023-03-15T13:05:26.965Z,7.10
2023-03-15T13:08:18.320Z,7.10
2023-03-15T13:10:56.452Z,7.20
2023-03-15T13:13:47.356Z,7.20
2023-03-15T13:16:44.529Z,7.20
2023-03-15T13:19:14.397Z,7.10
2023-03-15T13:22:04.297Z,7.20
2023-03-15T13:24:42.611Z,7.30
2023-03-15T13:28:08.077Z,7.60
2023-03-15T13:30:40.878Z,8.00
2023-03-15T13:33:21.037Z,8.20
2023-03-15T13:36:03.630Z,8.50
2023-03-15T13:38:41.658Z,8.50
2023-03-15T13:41:30.971Z,8.50
2023-03-15T13:44:01.048Z,8.60
2023-03-15T13:46:30.486Z,8.50
2023-03-15T13:49:00.078Z,8.30
2023-03-15T13:51:37.860Z,8.10
2023-03-15T13:54:12.234Z,8.00
2023-03-15T13:57:03.348Z,8.20
2023-03-15T13:59:34.950Z,8.40
2023-03-15T14:02:03.948Z,8.40
2023-03-15T14:04:35.453Z,8.50
2023-03-15T14:07:12.741Z,8.20
2023-03-15T14:09:39.947Z,8.20
2023-03-15T14:12:17.096Z,8.30
2023-03-15T14:14:51.558Z,8.20
2023-03-15T14:17:27.466Z,8.20
2023-03-15T14:19:56.733Z,8.10
2023-03-15T14:22:31.071Z,8.10
2023-03-15T14:24:57.852Z,8.20
2023-03-15T14:27:28.324Z,8.40
2023-03-15T14:30:01.622Z,8.70
2023-03-15T14:32:28.877Z,8.90
2023-03-15T14:35:26.179Z,9.00
2023-03-15T14:38:23.880Z,9.20
2023-03-15T14:40:51.999Z,9.20
2023-03-15T14:43:18.824Z,9.30
2023-03-15T14:45:47.795Z,9.50
2023-03-15T14:48:27.142Z,9.40
2023-03-15T14:50:54.718Z,9.30
2023-03-15T14:53:24.203Z,9.30
2023-03-15T14:55:50.862Z,9.30
2023-03-15T14:58:20.029Z,9.40
2023-03-15T15:00:50.194Z,9.30
2023-03-15T15:03:31.279Z,9.10
2023-03-15T15:05:59.182Z,9.10
2023-03-15T15:08:25.866Z,9.30
2023-03-15T15:10:55.674Z,9.50
2023-03-15T15:13:27.883Z,9.60
2023-03-15T15:15:56.901Z,9.60
2023-03-15T15:18:29.100Z,9.50
2023-03-15T15:20:57.339Z,9.40
2023-03-15T15:23:27.726Z,9.20
2023-03-15T15:25:58.148Z,9.10
2023-03-15T15:28:34.606Z,9.00
2023-03-15T15:31:04.084Z,8.80
2023-03-15T15:33:31.625Z,8.60
2023-03-15T15:35:58.632Z,8.70
2023-03-15T15:38:32.263Z,8.40
2023-03-15T15:40:59.008Z,8.20
2023-03-15T15:43:25.706Z,8.00
2023-03-15T15:45:52.433Z,7.80
2023-03-15T15:48:19.118Z,7.70
2023-03-15T15:50:45.802Z,7.60
2023-03-15T15:53:17.164Z,7.50
2023-03-15T15:55:44.284Z,7.40
2023-03-15T15:58:12.574Z,7.30
2023-03-15T16:00:39.385Z,7.00
2023-03-15T16:03:16.009Z,6.60
2023-03-15T16:05:45.248Z,6.40
2023-03-15T16:08:23.755Z,6.30
2023-03-15T16:10:50.842Z,6.30
2023-03-15T16:13:17.938Z,6.20
2023-03-15T16:15:44.641Z,6.10
2023-03-15T16:18:12.194Z,6.00
2023-03-15T16:20:40.462Z,5.90
2023-03-15T16:23:10.722Z,5.80
2023-03-15T16:25:37.502Z,5.70
2023-03-15T16:28:05.215Z,5.70
2023-03-15T16:30:33.443Z,5.60
2023-03-15T16:33:00.371Z,5.70
2023-03-15T16:35:35.574Z,5.60
2023-03-15T16:38:06.035Z,5.60
2023-03-15T16:40:34.506Z,5.60
2023-03-15T16:43:01.325Z,5.60
2023-03-15T16:45:28.467Z,5.50
2023-03-15T16:47:56.401Z,5.40
2023-03-15T16:50:23.567Z,5.40
2023-03-15T16:52:53.975Z,5.30
2023-03-15T16:55:34.354Z,5.30
2023-03-15T16:58:04.485Z,5.20
2023-03-15T17:00:31.698Z,5.10
2023-03-15T17:03:01.619Z,5.20
2023-03-15T17:05:28.552Z,5.20
2023-03-15T17:07:55.607Z,5.20
2023-03-15T17:10:23.145Z,5.10
2023-03-15T17:12:52.314Z,5.10
2023-03-15T17:15:21.573Z,5.10
2023-03-15T17:17:48.906Z,5.00
2023-03-15T17:20:21.702Z,5.00
2023-03-15T17:22:54.204Z,4.90
2023-03-15T17:25:20.972Z,4.90
2023-03-15T17:27:49.385Z,4.80
2023-03-15T17:30:22.362Z,4.90
2023-03-15T17:32:49.234Z,4.90
2023-03-15T17:35:17.694Z,4.90
2023-03-15T17:37:45.427Z,4.80
2023-03-15T17:40:23.005Z,4.80
2023-03-15T17:42:49.905Z,4.80
2023-03-15T17:45:20.706Z,4.80
2023-03-15T17:47:48.663Z,4.70
2023-03-15T17:50:15.711Z,4.80
2023-03-15T17:52:44.326Z,4.70
2023-03-15T17:55:16.275Z,4.70
2023-03-15T17:57:54.121Z,4.70
2023-03-15T18:00:23.027Z,4.60
2023-03-15T18:02:55.552Z,4.60
2023-03-15T18:05:25.368Z,4.50
2023-03-15T18:07:59.317Z,4.50
2023-03-15T18:10:32.719Z,4.50
2023-03-15T18:12:59.713Z,4.50
2023-03-15T18:15:26.369Z,4.50
2023-03-15T18:17:53.101Z,4.40
2023-03-15T18:20:22.143Z,4.40
2023-03-15T18:22:49.371Z,4.30
2023-03-15T18:25:21.812Z,4.20
2023-03-15T18:27:49.372Z,4.20
2023-03-15T18:30:18.935Z,4.10
2023-03-15T18:32:46.472Z,4.10
2023-03-15T18:35:21.869Z,4.10
2023-03-15T18:37:48.600Z,4.10
2023-03-15T18:40:18.699Z,4.00
2023-03-15T18:42:45.857Z,4.00
2023-03-15T18:45:24.358Z,4.10
2023-03-15T18:47:51.361Z,4.20
2023-03-15T18:50:18.777Z,4.10
2023-03-15T18:52:46.351Z,4.10
2023-03-15T18:55:15.753Z,4.00
2023-03-15T18:57:43.182Z,4.10
2023-03-15T19:00:14.211Z,4.10
2023-03-15T19:02:42.789Z,4.00
2023-03-15T19:05:10.470Z,4.00
2023-03-15T19:07:38.515Z,4.00
2023-03-15T19:10:07.239Z,4.00
2023-03-15T19:12:34.446Z,3.90
2023-03-15T19:15:01.130Z,3.90
2023-03-15T19:17:27.830Z,3.90
2023-03-15T19:19:54.499Z,3.90
2023-03-15T19:22:21.129Z,4.00
2023-03-15T19:24:47.866Z,3.90
2023-03-15T19:27:15.044Z,3.90
2023-03-15T19:29:41.728Z,3.80
2023-03-15T19:32:08.508Z,3.80
2023-03-15T19:34:35.172Z,3.80
2023-03-15T19:37:01.943Z,3.70
2023-03-15T19:39:28.593Z,3.70
2023-03-15T19:41:55.276Z,3.70
2023-03-15T19:44:24.609Z,3.60
2023-03-15T19:46:52.152Z,3.60
2023-03-15T19:49:18.888Z,3.60
2023-03-15T19:51:45.537Z,3.60
2023-03-15T19:54:12.193Z,3.50
2023-03-15T19:56:38.849Z,3.60
2023-03-15T19:59:05.570Z,3.40
2023-03-15T20:01:32.393Z,3.30
2023-03-15T20:03:59.850Z,3.30
2023-03-15T20:06:26.766Z,3.30
2023-03-15T20:08:53.559Z,3.20
2023-03-15T20:11:24.856Z,3.20
2023-03-15T20:13:52.722Z,3.20
2023-03-15T20:16:20.956Z,3.20
2023-03-15T20:18:50.914Z,3.20
2023-03-15T20:21:18.632Z,3.20
2023-03-15T20:23:45.422Z,3.10
2023-03-15T20:26:15.697Z,3.10
2023-03-15T20:28:44.169Z,3.00
2023-03-15T20:31:17.562Z,3.00
2023-03-15T20:33:47.566Z,3.00
2023-03-15T20:36:14.266Z,3.00
2023-03-15T20:38:41.055Z,3.00
2023-03-15T20:41:08.448Z,3.10
2023-03-15T20:43:35.404Z,3.10
2023-03-15T20:46:04.183Z,3.10
2023-03-15T20:48:33.276Z,2.90
2023-03-15T20:51:00.130Z,2.90
2023-03-15T20:53:26.812Z,2.80
2023-03-15T20:55:53.522Z,2.80
2023-03-15T20:58:21.343Z,2.90
2023-03-15T21:00:48.205Z,2.90
2023-03-15T21:03:16.906Z,2.90
2023-03-15T21:05:46.697Z,2.90
2023-03-15T21:08:14.003Z,2.90
2023-03-15T21:10:40.768Z,2.90
2023-03-15T21:13:10.071Z,2.80
2023-03-15T21:15:47.418Z,2.80
2023-03-15T21:18:16.071Z,2.70
2023-03-15T21:20:43.498Z,2.70
2023-03-15T21:23:10.899Z,2.70
2023-03-15T21:25:39.138Z,2.70
2023-03-15T21:28:06.107Z,2.70
2023-03-15T21:30:32.993Z,2.60
2023-03-15T21:33:00.109Z,2.70
2023-03-15T21:35:26.977Z,2.60
2023-03-15T21:37:53.744Z,2.70
2023-03-15T21:40:20.551Z,2.60
2023-03-15T21:42:47.767Z,2.60
2023-03-15T21:45:14.846Z,2.50
2023-03-15T21:47:41.685Z,2.50
2023-03-15T21:50:09.199Z,2.40
2023-03-15T21:52:35.861Z,2.50
2023-03-15T21:55:02.622Z,2.50
2023-03-15T21:57:29.420Z,2.50
2023-03-15T21:59:56.111Z,2.60
2023-03-15T22:02:22.765Z,2.60
2023-03-15T22:04:49.582Z,2.60
2023-03-15T22:07:17.811Z,2.60
2023-03-15T22:09:44.604Z,2.50
2023-03-15T22:12:12.164Z,2.50
2023-03-15T22:14:39.987Z,2.50
2023-03-15T22:17:06.763Z,2.40
2023-03-15T22:19:33.761Z,2.40
2023-03-15T22:22:00.912Z,2.30
2023-03-15T22:24:27.553Z,2.30
2023-03-15T22:26:54.364Z,2.20
2023-03-15T22:29:21.025Z,2.20
2023-03-15T22:31:47.797Z,2.10
2023-03-15T22:34:14.438Z,2.10
2023-03-15T22:36:42.689Z,2.20
2023-03-15T22:39:10.175Z,2.20
2023-03-15T22:41:36.978Z,2.20
2023-03-15T22:44:04.356Z,2.10
2023-03-15T22:46:34.896Z,2.10
2023-03-15T22:49:02.382Z,2.10
2023-03-15T22:51:29.071Z,2.10
2023-03-15T22:53:55.714Z,2.20
2023-03-15T22:56:22.576Z,2.20
2023-03-15T22:58:49.334Z,2.20
2023-03-15T23:01:16.083Z,2.30
2023-03-15T23:03:42.758Z,2.20
2023-03-15T23:06:09.549Z,2.20
2023-03-15T23:08:36.358Z,2.20
2023-03-15T23:11:03.882Z,2.20
2023-03-15T23:13:31.071Z,2.20
2023-03-15T23:15:58.009Z,2.20
2023-03-15T23:18:24.915Z,2.10
2023-03-15T23:20:51.667Z,2.20
2023-03-15T23:23:18.350Z,2.20
2023-03-15T23:25:45.930Z,2.10
2023-03-15T23:28:13.772Z,2.10
2023-03-15T23:30:40.594Z,2.10
2023-03-15T23:33:08.327Z,2.10
2023-03-15T23:35:35.330Z,2.00
2023-03-15T23:38:02.006Z,2.00
2023-03-15T23:40:30.094Z,1.90
2023-03-15T23:42:59.237Z,1.90
2023-03-15T23:45:28.295Z,1.90
2023-03-15T23:47:55.331Z,1.90
2023-03-15T23:50:25.896Z,2.00
2023-03-15T23:52:54.799Z,2.00
2023-03-15T23:55:23.392Z,2.00
2023-03-15T23:57:50.318Z,2.10
